Time;durP1;ratioP1;P1;durP2;ratioP2;P2;SDS_P1;SDS_P2;PMS_P1;PMS_P2;Temp;Humidity;BMP_temperature;BMP_pressure;BME280_temperature;BME280_humidity;BME280_pressure;Samples;Min_cycle;Max_cycle;Signal;HPM_P1;HPM_P2
2023/09/29 00:00:34;;;;;;;;;6.67;5.67;;;;;21.11;71.91;100850.53;5077568;27;45391;-79
2023/09/29 00:03:00;;;;;;;;;4.67;4.67;;;;;21.11;72.06;100861.38;5077767;28;45296;-80
2023/09/29 00:05:27;;;;;;;;;11.00;6.00;;;;;21.00;72.48;100843.47;5078202;28;45540;-79
2023/09/29 00:07:52;;;;;;;;;5.00;3.67;;;;;21.07;72.67;100843.69;5077831;28;46072;-80
2023/09/29 00:10:20;;;;;;;;;5.33;5.00;;;;;21.03;72.88;100845.84;5077591;27;45360;-79
2023/09/29 00:12:46;;;;;;;;;4.00;4.00;;;;;20.97;72.91;100843.75;5079034;27;45317;-80
2023/09/29 00:15:12;;;;;;;;;6.67;5.00;;;;;20.98;73.19;100841.91;5079262;28;45447;-80
2023/09/29 00:17:38;;;;;;;;;5.00;3.33;;;;;20.91;73.77;100842.47;5080038;28;46178;-79
2023/09/29 00:22:41;;;;;;;;;4.00;4.00;;;;;20.83;74.20;100836.09;5081379;27;45246;-87
2023/09/29 00:25:07;;;;;;;;;5.33;5.33;;;;;20.82;74.39;100835.22;5082067;28;45564;-80
2023/09/29 00:27:33;;;;;;;;;7.00;5.67;;;;;20.78;74.69;100830.28;5083066;27;45236;-80
2023/09/29 00:29:58;;;;;;;;;7.00;5.33;;;;;20.70;75.04;100822.88;5084202;27;45182;-81
2023/09/29 00:32:24;;;;;;;;;6.00;5.00;;;;;20.73;74.79;100829.88;5080074;28;45413;-81
2023/09/29 00:34:49;;;;;;;;;4.67;4.67;;;;;20.73;75.47;100821.78;5079559;27;45412;-80
2023/09/29 00:37:15;;;;;;;;;8.00;5.00;;;;;20.75;75.35;100833.28;5078124;28;46025;-79
2023/09/29 00:39:40;;;;;;;;;7.00;5.00;;;;;20.57;75.40;100804.31;5078581;28;45372;-79
2023/09/29 00:42:06;;;;;;;;;4.33;4.00;;;;;20.75;75.19;100827.88;5078217;27;45274;-79
2023/09/29 00:44:33;;;;;;;;;5.00;5.00;;;;;20.72;75.24;100828.16;5078100;28;45325;-79
2023/09/29 00:47:00;;;;;;;;;3.33;3.33;;;;;20.67;75.46;100808.81;5078980;27;46554;-78
2023/09/29 00:49:26;;;;;;;;;5.67;4.67;;;;;20.69;75.50;100823.88;5078062;27;45234;-78
2023/09/29 00:51:52;;;;;;;;;5.67;4.67;;;;;20.70;75.49;100824.72;5079220;28;45390;-78
2023/09/29 00:54:18;;;;;;;;;5.33;5.33;;;;;20.76;75.67;100825.03;5078679;27;45236;-83
2023/09/29 00:56:44;;;;;;;;;4.33;3.67;;;;;20.69;75.28;100801.41;5077305;28;47909;-79
2023/09/29 00:59:10;;;;;;;;;4.00;4.00;;;;;20.73;75.27;100808.25;5079643;27;45325;-79
2023/09/29 01:01:36;;;;;;;;;4.00;4.00;;;;;20.70;75.29;100805.81;5096979;27;45430;-81
2023/09/29 01:04:02;;;;;;;;;6.67;5.00;;;;;20.68;75.77;100788.91;5082618;27;45488;-80
2023/09/29 01:06:29;;;;;;;;;5.00;5.00;;;;;20.69;75.30;100791.44;5079593;28;45425;-80
2023/09/29 01:08:57;;;;;;;;;4.33;4.33;;;;;20.66;75.64;100780.94;5079188;27;45182;-79
2023/09/29 01:11:22;;;;;;;;;2.00;2.00;;;;;20.66;75.77;100777.38;5077757;28;45359;-79
2023/09/29 01:13:49;;;;;;;;;4.67;4.67;;;;;20.67;75.42;100781.78;5081051;27;46074;-83
2023/09/29 01:16:14;;;;;;;;;4.67;4.67;;;;;20.72;75.62;100779.53;5080083;28;45349;-81
2023/09/29 01:18:39;;;;;;;;;6.00;4.67;;;;;20.67;75.68;100773.69;5078048;28;45344;-79
2023/09/29 01:21:06;;;;;;;;;1.67;1.67;;;;;20.69;75.24;100768.97;5076312;28;45304;-78
2023/09/29 01:23:33;;;;;;;;;7.00;5.67;;;;;20.72;75.35;100784.94;5078456;27;45572;-83
2023/09/29 01:25:59;;;;;;;;;6.33;4.67;;;;;20.59;75.27;100760.94;5078942;27;47033;-80
2023/09/29 01:28:24;;;;;;;;;2.00;2.00;;;;;20.66;74.96;100777.38;5078510;28;45235;-84
2023/09/29 01:30:53;;;;;;;;;8.33;5.00;;;;;20.66;75.54;100788.19;5078133;27;46172;-86
2023/09/29 01:33:19;;;;;;;;;6.67;5.00;;;;;20.58;75.52;100770.88;5079441;28;45526;-78
2023/09/29 01:35:44;;;;;;;;;6.67;4.67;;;;;20.67;75.38;100788.03;5078478;27;46052;-79
2023/09/29 01:38:10;;;;;;;;;7.33;6.00;;;;;20.65;75.54;100786.50;5080352;27;45401;-79
2023/09/29 01:40:35;;;;;;;;;5.33;5.33;;;;;20.62;75.47;100779.53;5080199;28;53716;-79
2023/09/29 01:43:00;;;;;;;;;3.33;3.33;;;;;20.57;75.87;100781.81;5078566;28;45306;-79
2023/09/29 01:45:26;;;;;;;;;6.00;4.33;;;;;20.54;75.64;100785.66;5078165;27;45781;-78
2023/09/29 01:47:52;;;;;;;;;5.00;4.00;;;;;20.53;75.59;100788.50;5079917;27;45445;-83
2023/09/29 01:50:20;;;;;;;;;6.67;5.67;;;;;20.56;75.74;100791.75;5082025;28;45499;-79
2023/09/29 01:52:47;;;;;;;;;6.00;4.33;;;;;20.44;75.47;100768.63;5081108;28;45409;-79
2023/09/29 01:55:21;;;;;;;;;4.00;4.00;;;;;20.60;75.59;100793.19;5083997;28;45833;-81
2023/09/29 01:57:48;;;;;;;;;5.00;5.00;;;;;20.63;75.44;100788.50;5082497;27;45235;-82
2023/09/29 02:00:20;;;;;;;;;5.67;4.67;;;;;20.63;75.53;100791.19;5082175;27;45366;-82
2023/09/29 02:02:46;;;;;;;;;6.33;5.00;;;;;20.60;75.54;100771.59;5082535;27;45247;-80
2023/09/29 02:05:13;;;;;;;;;6.00;5.33;;;;;20.59;75.51;100769.88;5085357;27;45253;-84
2023/09/29 02:07:39;;;;;;;;;7.33;5.67;;;;;20.58;75.33;100776.28;5082150;27;45334;-80
2023/09/29 02:10:07;;;;;;;;;4.00;4.00;;;;;20.66;75.13;100788.19;5082001;27;45254;-82
2023/09/29 02:12:33;;;;;;;;;3.67;3.67;;;;;20.68;74.77;100783.50;5080521;27;45463;-78
2023/09/29 02:14:58;;;;;;;;;4.33;4.33;;;;;20.68;74.29;100787.06;5078291;28;48206;-80
2023/09/29 02:17:25;;;;;;;;;3.67;3.00;;;;;20.61;74.15;100776.00;5079736;28;45447;-79
2023/09/29 02:19:52;;;;;;;;;3.00;3.00;;;;;20.67;73.63;100798.00;5078496;28;45346;-78
2023/09/29 02:22:18;;;;;;;;;6.00;5.00;;;;;20.58;73.27;100781.69;5077954;28;45436;-81
2023/09/29 02:24:46;;;;;;;;;4.00;4.00;;;;;20.65;73.12;100803.56;5079794;27;46273;-78
2023/09/29 02:27:12;;;;;;;;;5.67;4.00;;;;;20.62;73.33;100790.34;5083988;27;45400;-76
2023/09/29 02:29:37;;;;;;;;;3.67;3.67;;;;;20.65;73.02;100789.19;5084640;28;45471;-84
2023/09/29 02:32:02;;;;;;;;;5.67;4.67;;;;;20.69;72.57;100796.00;5086308;28;45384;-81
2023/09/29 02:34:28;;;;;;;;;4.00;4.00;;;;;20.70;72.62;100797.72;5081010;27;46020;-78
2023/09/29 02:36:54;;;;;;;;;4.00;3.00;;;;;20.70;71.96;100798.56;5080711;27;45318;-79
2023/09/29 02:39:20;;;;;;;;;4.33;4.00;;;;;20.68;72.16;100795.16;5082767;28;45340;-79
2023/09/29 02:41:46;;;;;;;;;3.00;1.00;;;;;20.69;72.07;100801.41;5080953;27;45591;-79
2023/09/29 02:44:11;;;;;;;;;1.67;1.67;;;;;20.62;72.02;100784.94;5079486;27;45963;-84
2023/09/29 02:46:36;;;;;;;;;3.00;3.00;;;;;20.66;71.56;100791.75;5079853;27;45362;-80
2023/09/29 02:49:03;;;;;;;;;3.50;3.00;;;;;20.72;71.17;100795.75;5080793;27;49484;-82
2023/09/29 02:51:29;;;;;;;;;3.00;3.00;;;;;20.78;70.84;100784.31;5079301;28;45484;-79
2023/09/29 02:53:55;;;;;;;;;4.00;2.00;;;;;20.84;70.39;100789.16;5077475;28;47288;-77
2023/09/29 02:56:21;;;;;;;;;1.67;1.67;;;;;20.86;70.38;100787.16;5079035;27;46117;-78
2023/09/29 02:58:46;;;;;;;;;3.00;3.00;;;;;20.79;70.70;100780.63;5078128;27;45550;-79
2023/09/29 03:01:16;;;;;;;;;2.33;2.33;;;;;20.76;71.07;100789.03;5079193;27;45628;-79
2023/09/29 03:03:45;;;;;;;;;2.00;2.00;;;;;20.75;71.10;100801.69;5078660;27;45264;-80
2023/09/29 03:06:18;;;;;;;;;1.33;1.33;;;;;20.70;71.38;100795.00;5079019;27;45386;-79
2023/09/29 03:08:43;;;;;;;;;2.00;2.00;;;;;20.64;72.14;100779.41;5078447;27;45307;-77
2023/09/29 03:11:09;;;;;;;;;2.00;2.00;;;;;20.60;72.12;100786.94;5079179;28;45646;-79
2023/09/29 03:13:39;;;;;;;;;1.67;1.00;;;;;20.50;72.67;100776.16;5078048;27;45545;-79
2023/09/29 03:16:07;;;;;;;;;2.67;2.00;;;;;20.50;72.99;100784.25;5077913;27;45327;-80
2023/09/29 03:18:36;;;;;;;;;2.00;2.00;;;;;20.45;73.17;100775.75;5081055;27;45289;-79
2023/09/29 03:21:07;;;;;;;;;1.67;1.67;;;;;20.33;73.82;100752.56;5081386;28;45567;-78
2023/09/29 03:23:36;;;;;;;;;1.75;1.75;;;;;20.35;73.97;100765.91;5081057;28;46121;-79
2023/09/29 03:26:03;;;;;;;;;2.50;2.50;;;;;20.35;73.90;100776.72;5081509;27;45422;-79
2023/09/29 03:28:29;;;;;;;;;3.67;2.00;;;;;20.24;74.62;100775.03;5081630;27;45439;-81
2023/09/29 03:30:54;;;;;;;;;1.33;1.33;;;;;20.23;75.05;100773.31;5081194;27;45340;-81
2023/09/29 03:33:20;;;;;;;;;1.00;1.00;;;;;20.21;74.85;100786.13;5082567;28;45329;-78
2023/09/29 03:35:47;;;;;;;;;1.33;1.33;;;;;20.17;75.19;100784.69;5078866;28;45508;-82
2023/09/29 03:38:14;;;;;;;;;3.00;3.00;;;;;20.10;75.32;100783.56;5081150;28;45353;-79
2023/09/29 03:40:44;;;;;;;;;2.00;2.00;;;;;20.10;75.58;100783.56;5082942;28;45320;-82
2023/09/29 03:43:09;;;;;;;;;2.00;2.00;;;;;20.10;75.57;100783.56;5079475;27;45547;-79
2023/09/29 03:45:36;;;;;;;;;2.00;2.00;;;;;19.95;75.45;100758.84;5079057;28;45353;-78
2023/09/29 03:48:05;;;;;;;;;2.00;2.00;;;;;20.02;76.13;100777.00;5078222;28;45239;-80
2023/09/29 03:50:30;;;;;;;;;2.33;2.00;;;;;19.89;76.10;100762.94;5078319;27;45664;-79
2023/09/29 03:52:55;;;;;;;;;4.67;3.33;;;;;19.97;75.93;100787.41;5078037;28;55043;-78
2023/09/29 03:55:21;;;;;;;;;2.00;2.00;;;;;19.94;76.15;100785.00;5077893;28;65142;-79
2023/09/29 03:57:48;;;;;;;;;3.00;3.00;;;;;19.90;75.95;100777.28;5078361;27;45479;-79
2023/09/29 04:00:15;;;;;;;;;5.00;3.67;;;;;19.90;76.65;100794.34;5079022;27;45356;-78
2023/09/29 04:02:41;;;;;;;;;2.00;2.00;;;;;19.84;76.71;100805.72;5079209;27;45227;-80
2023/09/29 04:05:07;;;;;;;;;2.00;2.00;;;;;19.74;76.99;100783.25;5078270;27;45346;-79
2023/09/29 04:07:36;;;;;;;;;2.67;2.67;;;;;19.78;77.42;100798.16;5076886;28;45325;-77
2023/09/29 04:10:02;;;;;;;;;2.00;2.00;;;;;19.71;77.30;100799.72;5075502;28;45496;-78
2023/09/29 04:12:27;;;;;;;;;5.33;2.33;;;;;19.80;76.90;100819.66;5076607;27;46147;-79
2023/09/29 04:14:53;;;;;;;;;4.33;4.33;;;;;19.86;77.07;100843.34;5077122;27;45435;-78
2023/09/29 04:17:18;;;;;;;;;4.00;3.00;;;;;19.85;77.33;100850.59;5077331;27;45595;-77
2023/09/29 04:19:44;;;;;;;;;3.00;3.00;;;;;19.91;76.71;100868.94;5077376;27;45649;-79
2023/09/29 04:22:09;;;;;;;;;4.33;3.33;;;;;19.97;76.63;100868.38;5076846;28;45451;-79
2023/09/29 04:24:36;;;;;;;;;3.00;3.00;;;;;20.02;76.84;100854.47;5077319;28;71592;-79
2023/09/29 04:27:01;;;;;;;;;3.67;2.67;;;;;20.09;76.55;100857.47;5077034;28;45317;-80
2023/09/29 04:29:26;;;;;;;;;2.33;1.67;;;;;20.02;75.99;100841.81;5077602;28;45667;-78
2023/09/29 04:31:51;;;;;;;;;6.33;2.33;;;;;20.15;76.15;100862.28;5077209;28;59315;-79
2023/09/29 04:34:17;;;;;;;;;3.33;2.67;;;;;20.12;75.93;100857.16;5077824;27;45759;-79
2023/09/29 04:36:42;;;;;;;;;3.00;3.00;;;;;20.16;75.93;100854.03;5076731;28;66009;-80
2023/09/29 04:39:08;;;;;;;;;5.33;3.33;;;;;20.18;75.43;100856.59;5077210;27;45457;-77
2023/09/29 04:41:33;;;;;;;;;5.00;3.67;;;;;20.22;75.61;100864.28;5076982;28;45381;-79
2023/09/29 04:44:00;;;;;;;;;3.00;3.00;;;;;20.21;75.47;100861.75;5077210;28;45298;-80
2023/09/29 04:46:25;;;;;;;;;5.00;3.67;;;;;20.20;75.42;100865.44;5078079;27;45400;-80
2023/09/29 04:48:53;;;;;;;;;3.00;3.00;;;;;20.17;75.54;100861.13;5077682;28;45408;-81
2023/09/29 04:51:18;;;;;;;;;5.33;4.00;;;;;20.14;75.73;100845.22;5078057;28;45604;-80
2023/09/29 04:53:44;;;;;;;;;3.00;3.00;;;;;20.13;76.03;100854.31;5080767;27;45400;-88
2023/09/29 04:56:09;;;;;;;;;3.67;3.67;;;;;20.13;76.04;100864.28;5080133;28;45422;-90
2023/09/29 04:58:34;;;;;;;;;6.00;4.33;;;;;20.13;76.42;100859.72;5080870;27;45303;-93
2023/09/29 05:01:01;;;;;;;;;4.00;2.33;;;;;20.16;76.06;100864.00;5079971;28;45351;-85
2023/09/29 05:03:27;;;;;;;;;3.00;3.00;;;;;20.10;75.82;100861.88;5082346;28;45409;-90
2023/09/29 05:05:52;;;;;;;;;6.00;5.00;;;;;20.17;75.53;100861.13;5084049;27;45456;-79
2023/09/29 05:08:18;;;;;;;;;3.00;3.00;;;;;20.16;75.63;100847.78;5077845;28;45545;-79
2023/09/29 05:10:44;;;;;;;;;4.00;4.00;;;;;20.14;75.48;100837.13;5076775;27;45981;-80
2023/09/29 05:13:09;;;;;;;;;4.00;3.00;;;;;20.14;75.41;100838.97;5076626;28;45231;-80
2023/09/29 05:15:36;;;;;;;;;4.67;4.00;;;;;20.14;75.50;100856.03;5077024;27;45918;-83
2023/09/29 05:18:02;;;;;;;;;3.00;3.00;;;;;20.15;75.39;100870.38;5093282;27;45542;-80
2023/09/29 05:20:28;;;;;;;;;5.67;5.33;;;;;20.19;75.07;100874.53;5078148;27;45566;-81
2023/09/29 05:22:53;;;;;;;;;5.00;5.00;;;;;20.13;75.41;100869.69;5080564;27;45452;-83
2023/09/29 05:25:18;;;;;;;;;4.33;4.33;;;;;20.16;75.03;100880.19;5083630;28;45500;-85
2023/09/29 05:27:44;;;;;;;;;6.33;4.00;;;;;20.15;74.99;100873.09;5082389;27;45573;-80
2023/09/29 05:30:11;;;;;;;;;7.33;4.00;;;;;20.14;75.22;100876.78;5080459;28;46309;-82
2023/09/29 05:32:36;;;;;;;;;4.00;4.00;;;;;20.17;75.32;100879.19;5081071;27;45279;-79
2023/09/29 05:35:02;;;;;;;;;3.00;3.00;;;;;20.14;75.30;100885.72;5078763;28;51992;-79
2023/09/29 05:37:27;;;;;;;;;5.67;5.00;;;;;20.17;75.21;100887.28;5081223;27;45670;-81
2023/09/29 05:39:53;;;;;;;;;7.00;4.33;;;;;20.18;74.99;100889.00;5079914;27;46150;-82
2023/09/29 05:42:21;;;;;;;;;4.00;2.67;;;;;20.07;74.61;100881.06;5080240;28;45370;-82
2023/09/29 05:44:46;;;;;;;;;4.67;4.67;;;;;20.14;74.35;100898.38;5071697;27;45736;-82
2023/09/29 05:47:12;;;;;;;;;4.00;4.00;;;;;20.21;74.47;100915.75;5063924;28;45493;-84
2023/09/29 05:49:37;;;;;;;;;4.33;4.00;;;;;20.21;74.47;100910.34;5062074;28;45453;-77
2023/09/29 05:52:03;;;;;;;;;8.67;6.00;;;;;20.12;74.34;100892.28;5066892;28;45441;-82
2023/09/29 05:54:28;;;;;;;;;8.67;5.67;;;;;19.84;74.28;100851.59;5078995;28;45418;-79
2023/09/29 05:56:54;;;;;;;;;6.67;5.00;;;;;20.05;74.52;100889.25;5066302;27;45358;-79
2023/09/29 05:59:19;;;;;;;;;4.67;3.00;;;;;20.11;73.95;100913.03;5077739;28;45853;-79
2023/09/29 06:01:44;;;;;;;;;5.67;4.67;;;;;20.02;73.98;100917.41;5070452;28;56741;-79
2023/09/29 06:04:10;;;;;;;;;6.00;5.00;;;;;20.01;74.02;100920.25;5075257;28;45448;-78
2023/09/29 06:06:35;;;;;;;;;7.33;7.00;;;;;20.07;74.26;100929.66;5080673;27;45250;-79
2023/09/29 06:09:01;;;;;;;;;5.33;5.33;;;;;20.03;73.39;100924.50;5079368;27;45274;-81
2023/09/29 06:11:26;;;;;;;;;5.67;4.67;;;;;20.15;73.11;100935.19;5073537;27;45769;-80
2023/09/29 06:13:51;;;;;;;;;7.33;6.00;;;;;20.19;72.64;100939.34;5073007;28;66145;-79
2023/09/29 06:16:17;;;;;;;;;12.00;8.00;;;;;20.01;72.21;100898.66;5076331;28;45613;-84
2023/09/29 06:18:42;;;;;;;;;6.67;5.33;;;;;20.26;71.93;100946.72;5070818;28;45802;-80
2023/09/29 06:21:07;;;;;;;;;5.00;5.00;;;;;20.23;71.52;100921.84;5076947;28;54665;-82
2023/09/29 06:23:33;;;;;;;;;4.00;4.00;;;;;20.30;71.06;100942.75;5076302;28;53910;-79
2023/09/29 06:25:59;;;;;;;;;8.00;7.00;;;;;20.33;70.61;100947.03;5078960;27;45577;-83
2023/09/29 06:28:25;;;;;;;;;8.33;7.67;;;;;20.39;70.50;100942.91;5081442;27;46491;-85
2023/09/29 06:30:52;;;;;;;;;12.00;8.33;;;;;20.45;70.05;100967.56;5073972;27;45728;-87
2023/09/29 06:33:18;;;;;;;;;8.67;8.67;;;;;20.47;70.44;100962.88;5058812;28;45548;-85
2023/09/29 06:35:43;;;;;;;;;9.00;6.00;;;;;20.21;70.61;100919.31;5072684;28;45259;-86
2023/09/29 06:38:09;;;;;;;;;6.33;6.33;;;;;20.48;70.29;100969.97;5079118;28;64932;-84
2023/09/29 06:40:34;;;;;;;;;9.33;6.00;;;;;20.23;70.46;100930.81;5079601;28;45348;-85
2023/09/29 06:42:59;;;;;;;;;7.33;7.00;;;;;20.52;70.37;100974.09;5081937;27;45322;-81
2023/09/29 06:45:29;;;;;;;;;10.33;8.67;;;;;20.55;70.15;100984.63;5079094;27;54176;-82
2023/09/29 06:47:55;;;;;;;;;10.00;6.33;;;;;20.61;69.81;100975.09;5071288;27;45647;-83
2023/09/29 06:50:20;;;;;;;;;8.33;5.67;;;;;20.59;69.71;100964.44;5070817;28;45397;-82
2023/09/29 06:52:45;;;;;;;;;8.33;6.00;;;;;20.69;69.38;100974.38;5076069;27;45472;-80
2023/09/29 06:55:13;;;;;;;;;7.67;7.67;;;;;20.65;68.87;100970.25;5056484;28;59594;-79
2023/09/29 06:57:38;;;;;;;;;9.33;7.00;;;;;20.71;68.62;100988.63;5056772;28;45433;-80
2023/09/29 07:00:07;;;;;;;;;6.00;6.00;;;;;20.66;68.78;100983.63;5057896;28;45426;-80
2023/09/29 07:02:33;;;;;;;;;8.67;6.00;;;;;20.72;68.67;100990.34;5067520;28;45467;-82
2023/09/29 07:04:58;;;;;;;;;12.00;8.33;;;;;20.87;68.48;101015.94;5056944;28;45548;-80
2023/09/29 07:07:23;;;;;;;;;6.00;6.00;;;;;20.91;68.35;101025.47;5068879;28;46250;-81
2023/09/29 07:09:49;;;;;;;;;7.00;6.00;;;;;20.92;68.42;101035.28;5077326;27;45377;-81
2023/09/29 07:12:14;;;;;;;;;8.00;6.00;;;;;20.68;68.08;100997.00;5072738;28;45444;-81
2023/09/29 07:14:39;;;;;;;;;10.00;6.67;;;;;20.94;68.43;101044.09;5076569;28;45855;-80
2023/09/29 07:17:05;;;;;;;;;13.67;9.00;;;;;21.02;68.08;101052.38;5077071;28;45377;-82
2023/09/29 07:19:32;;;;;;;;;5.00;5.00;;;;;21.10;68.12;101051.69;5060480;28;45638;-84
2023/09/29 07:21:57;;;;;;;;;6.00;5.67;;;;;21.12;67.60;101058.63;5057523;28;45345;-80
2023/09/29 07:24:22;;;;;;;;;4.67;4.67;;;;;21.19;67.20;101058.91;5075803;28;45709;-82
2023/09/29 07:26:48;;;;;;;;;5.00;3.67;;;;;21.17;66.98;101050.94;5072336;27;46134;-82
2023/09/29 07:29:13;;;;;;;;;7.33;5.00;;;;;21.25;66.83;101052.09;5076377;28;45474;-81
2023/09/29 07:31:46;;;;;;;;;9.33;3.67;;;;;21.30;66.95;101049.81;5074381;28;61435;-82
2023/09/29 07:34:12;;;;;;;;;5.67;2.67;;;;;21.40;66.03;101072.31;5070418;27;45483;-82
2023/09/29 07:36:39;;;;;;;;;7.00;5.00;;;;;21.38;65.99;101068.91;5074588;28;46087;-82
2023/09/29 07:39:04;;;;;;;;;6.33;4.00;;;;;21.37;66.12;101078.03;5076132;27;45424;-82
2023/09/29 07:41:30;;;;;;;;;4.33;4.33;;;;;21.30;65.99;101069.63;5091803;27;45475;-80
2023/09/29 07:43:56;;;;;;;;;7.33;2.67;;;;;21.30;66.13;101082.28;5076260;28;45657;-80
2023/09/29 07:46:22;;;;;;;;;5.00;3.67;;;;;21.30;66.45;101082.28;5065750;28;45930;-81
2023/09/29 07:48:47;;;;;;;;;8.67;3.33;;;;;21.36;66.53;101103.38;5072586;28;45319;-82
2023/09/29 07:51:12;;;;;;;;;6.00;5.33;;;;;21.29;66.80;101096.81;5068556;28;45403;-81
2023/09/29 07:53:38;;;;;;;;;4.00;2.67;;;;;21.29;67.12;101118.47;5075111;27;45631;-81
2023/09/29 07:56:03;;;;;;;;;3.67;3.67;;;;;21.27;67.06;101115.03;5075092;28;64129;-80
2023/09/29 07:58:28;;;;;;;;;4.67;2.33;;;;;21.42;66.79;101129.84;5075602;28;45449;-82
2023/09/29 08:00:54;;;;;;;;;3.00;3.00;;;;;21.51;66.12;101128.16;5058059;27;45759;-81
2023/09/29 08:03:19;;;;;;;;;7.25;5.25;;;;;21.58;66.06;101124.69;5056887;28;45425;-81
2023/09/29 08:05:44;;;;;;;;;3.50;3.25;;;;;21.69;65.57;101138.09;5070716;28;45504;-83
2023/09/29 08:08:10;;;;;;;;;3.00;3.00;;;;;21.65;65.27;101125.84;5057734;28;47465;-81
2023/09/29 08:10:35;;;;;;;;;6.00;3.00;;;;;21.79;65.31;101151.63;5061275;28;45530;-81
2023/09/29 08:13:01;;;;;;;;;4.67;4.67;;;;;21.71;65.50;101146.06;5075832;27;45678;-82
2023/09/29 08:15:26;;;;;;;;;3.00;3.00;;;;;21.79;65.31;101148.91;5071651;28;46057;-84
2023/09/29 08:17:51;;;;;;;;;5.00;3.67;;;;;21.87;64.98;101148.16;5076279;27;45420;-83
2023/09/29 08:20:18;;;;;;;;;4.00;3.00;;;;;21.96;64.86;101166.25;5068247;28;45487;-83
2023/09/29 08:22:44;;;;;;;;;6.00;2.75;;;;;21.96;64.28;101177.94;5057281;28;45467;-83
2023/09/29 08:25:09;;;;;;;;;7.00;2.67;;;;;21.81;64.83;101165.00;5067473;28;45935;-82
2023/09/29 08:27:36;;;;;;;;;1.25;1.00;;;;;21.83;64.91;101184.66;5075596;27;45397;-82
2023/09/29 08:30:02;;;;;;;;;3.50;1.50;;;;;21.77;65.05;101191.53;5076066;27;45757;-80
2023/09/29 08:32:27;;;;;;;;;1.33;1.33;;;;;21.73;65.23;101199.06;5075073;27;45581;-82
2023/09/29 08:34:52;;;;;;;;;2.25;2.25;;;;;21.68;65.43;101195.06;5073108;28;47589;-81
2023/09/29 08:37:18;;;;;;;;;2.50;2.00;;;;;21.59;65.63;101202.19;5073242;28;45384;-81
2023/09/29 08:39:43;;;;;;;;;1.00;1.00;;;;;21.40;65.51;101196.78;5076207;27;45481;-82
2023/09/29 08:42:29;;;;;;;;;1.00;1.00;;;;;21.44;65.56;101219.84;5075748;27;45585;-80
2023/09/29 08:44:58;;;;;;;;;0.50;0.50;;;;;21.30;65.46;101228.38;5074487;27;45397;-82
2023/09/29 08:47:28;;;;;;;;;2.00;0.00;;;;;21.27;65.39;101228.66;5076843;27;45472;-80
2023/09/29 08:49:56;;;;;;;;;0.00;0.00;;;;;21.12;65.53;101230.88;5071230;27;45455;-84
2023/09/29 08:52:28;;;;;;;;;0.25;0.25;;;;;21.16;65.37;101233.16;5056199;28;45426;-84
2023/09/29 08:54:54;;;;;;;;;0.75;0.75;;;;;21.34;64.71;101248.75;5056700;28;45374;-80
2023/09/29 08:57:20;;;;;;;;;0.50;0.50;;;;;21.38;64.39;101220.44;5056609;28;45405;-81
2023/09/29 08:59:45;;;;;;;;;0.50;0.50;;;;;21.51;63.59;101244.53;5069342;28;45492;-82
2023/09/29 09:02:11;;;;;;;;;4.00;4.00;;;;;21.58;63.07;101251.91;5075574;28;45477;-81
2023/09/29 09:04:37;;;;;;;;;4.67;3.00;;;;;21.57;62.74;101239.38;5073621;28;47093;-84
2023/09/29 09:07:02;;;;;;;;;2.50;1.75;;;;;21.57;62.62;101250.22;5076232;28;45333;-84
2023/09/29 09:09:28;;;;;;;;;2.25;1.00;;;;;21.62;62.26;101255.22;5076231;27;45744;-82
2023/09/29 09:11:53;;;;;;;;;0.00;0.00;;;;;21.70;61.98;101263.47;5077545;27;45482;-84
2023/09/29 09:14:19;;;;;;;;;2.00;0.00;;;;;21.67;61.68;101248.38;5071678;28;61974;-83
2023/09/29 09:16:45;;;;;;;;;3.75;0.75;;;;;21.88;61.21;101255.50;5078207;27;45464;-83
2023/09/29 09:19:15;;;;;;;;;3.75;1.00;;;;;22.18;60.89;101268.91;5077739;28;45409;-82
2023/09/29 09:21:42;;;;;;;;;0.00;0.00;;;;;22.26;60.59;101282.56;5078196;28;45557;-80
2023/09/29 09:24:18;;;;;;;;;1.50;0.50;;;;;22.38;59.88;101278.69;5076132;27;45404;-84
2023/09/29 09:26:46;;;;;;;;;1.25;0.00;;;;;22.32;59.87;101284.72;5079382;27;45435;-80
2023/09/29 09:29:15;;;;;;;;;0.00;0.00;;;;;22.19;60.07;101291.44;5072704;27;45471;-83
2023/09/29 09:31:52;;;;;;;;;0.50;0.50;;;;;22.10;60.92;101301.28;5058496;28;45411;-80
2023/09/29 09:34:18;;;;;;;;;3.75;1.50;;;;;22.07;61.45;101315.97;5074714;28;46514;-83
2023/09/29 09:36:52;;;;;;;;;2.00;0.00;;;;;22.15;60.97;101325.25;5074334;28;45452;-81
2023/09/29 09:39:23;;;;;;;;;2.75;1.00;;;;;22.13;61.18;101340.75;5074448;28;45477;-83
2023/09/29 09:41:53;;;;;;;;;1.75;1.00;;;;;22.01;63.01;101348.16;5075538;28;45451;-81
2023/09/29 09:44:20;;;;;;;;;1.00;0.00;;;;;21.69;65.78;101353.81;5074482;28;46057;-82
2023/09/29 09:46:53;;;;;;;;;0.25;0.00;;;;;21.34;66.43;101328.06;5073825;28;45473;-83
2023/09/29 09:49:23;;;;;;;;;1.00;0.00;;;;;21.46;66.69;101366.69;5067057;28;45869;-82
2023/09/29 09:51:52;;;;;;;;;3.00;2.67;;;;;21.33;66.64;101363.38;5077258;27;45383;-81
2023/09/29 09:54:26;;;;;;;;;1.75;1.00;;;;;21.22;67.62;101361.59;5074822;27;46229;-80
2023/09/29 09:57:01;;;;;;;;;2.00;1.00;;;;;21.13;67.70;101368.69;5075622;27;45496;-81
2023/09/29 09:59:28;;;;;;;;;1.00;1.00;;;;;20.98;67.54;101364.63;5073996;27;45599;-81
2023/09/29 10:01:56;;;;;;;;;2.33;1.00;;;;;20.80;67.93;101356.25;5060559;28;45420;-83
2023/09/29 10:04:26;;;;;;;;;3.00;1.33;;;;;20.94;68.10;101373.97;5079878;28;46679;-83
2023/09/29 10:06:55;;;;;;;;;1.75;0.00;;;;;20.97;67.65;101378.28;5078658;28;45543;-83
2023/09/29 10:09:21;;;;;;;;;2.33;0.67;;;;;21.01;67.93;101380.59;5077686;27;45416;-82
2023/09/29 10:11:57;;;;;;;;;2.00;2.00;;;;;21.09;68.27;101377.19;5062243;28;45530;-83
2023/09/29 10:14:22;;;;;;;;;3.00;1.00;;;;;21.10;67.94;101378.94;5069456;27;45494;-83
2023/09/29 10:16:48;;;;;;;;;4.00;2.67;;;;;21.01;67.64;101385.13;5074068;28;45529;-82
2023/09/29 10:19:17;;;;;;;;;2.75;0.75;;;;;21.12;68.14;101404.84;5074675;28;55613;-83
2023/09/29 10:21:49;;;;;;;;;5.67;5.33;;;;;21.13;67.32;101393.03;5058246;28;45482;-83
2023/09/29 10:24:27;;;;;;;;;3.50;3.50;;;;;21.21;68.26;101398.59;5057433;28;45366;-81
2023/09/29 10:26:52;;;;;;;;;1.75;1.75;;;;;21.31;67.43;101411.38;5056882;28;45311;-83
2023/09/29 10:29:29;;;;;;;;;2.33;2.33;;;;;21.51;67.18;101399.63;5072915;28;45644;-83
2023/09/29 10:32:13;;;;;;;;;3.00;1.67;;;;;21.75;66.64;101408.25;5057737;28;45404;-82
2023/09/29 10:34:40;;;;;;;;;3.33;3.33;;;;;21.96;64.81;101401.88;5072247;28;46564;-84
2023/09/29 10:37:06;;;;;;;;;1.00;1.00;;;;;22.35;64.32;101410.94;5077254;27;45435;-81
2023/09/29 10:39:31;;;;;;;;;3.00;3.00;;;;;22.52;61.96;101395.81;5076757;28;45720;-81
2023/09/29 10:42:14;;;;;;;;;4.00;4.00;;;;;22.75;60.52;101408.06;5077228;28;45404;-81
2023/09/29 10:44:51;;;;;;;;;2.00;2.00;;;;;22.82;59.07;101409.19;5076888;27;46582;-82
2023/09/29 10:47:17;;;;;;;;;2.00;2.00;;;;;22.91;59.44;101430.03;5076297;27;45402;-83
2023/09/29 10:49:45;;;;;;;;;3.00;2.00;;;;;22.88;57.95;101408.63;5076943;27;45361;-82
2023/09/29 10:52:19;;;;;;;;;2.00;2.00;;;;;23.13;58.30;101418.00;5077597;27;45767;-82
2023/09/29 10:54:44;;;;;;;;;3.25;2.00;;;;;23.39;57.03;101428.19;5072079;27;46160;-83
2023/09/29 10:57:09;;;;;;;;;2.50;1.75;;;;;23.34;55.00;101420.50;5073561;28;45389;-83
2023/09/29 10:59:49;;;;;;;;;1.75;0.75;;;;;23.34;54.47;101404.22;5056829;28;45442;-82
2023/09/29 11:02:16;;;;;;;;;4.50;3.00;;;;;23.54;54.53;101411.25;5056416;28;45326;-81
2023/09/29 11:04:46;;;;;;;;;0.00;0.00;;;;;23.64;52.92;101408.53;5056467;28;45466;-81
2023/09/29 11:07:15;;;;;;;;;2.25;2.25;;;;;24.04;52.76;101432.59;5054300;28;45628;-81
2023/09/29 11:09:41;;;;;;;;;2.25;2.25;;;;;23.93;52.87;101407.50;5056674;28;45370;-83
2023/09/29 11:12:06;;;;;;;;;1.00;1.00;;;;;24.22;51.26;101442.63;5057356;28;45629;-80
2023/09/29 11:14:36;;;;;;;;;1.00;1.00;;;;;24.20;50.83;101442.78;5056095;28;55468;-83
2023/09/29 11:17:02;;;;;;;;;1.50;1.50;;;;;24.50;50.80;101444.34;5056826;28;45529;-83
2023/09/29 11:19:30;;;;;;;;;0.75;0.75;;;;;24.80;49.35;101442.19;5056352;28;45458;-81
2023/09/29 11:21:56;;;;;;;;;1.00;1.00;;;;;25.01;48.06;101429.13;5057018;28;45477;-82
2023/09/29 11:24:23;;;;;;;;;2.25;1.50;;;;;25.29;46.47;101438.84;5057143;28;45338;-82